Terminal Aerodrome Forecast
Issued by NWS Corpus Christi, TX

Home | Current Version | Previous Version | Text Only | Print | Product List | Glossary On
Versions: 1 2 3 4 5 6 7 8
000
FTUS44 KCRP 151732
TAFVCT
TAF
KVCT 151732Z 1518/1618 07010KT P6SM VCSH SCT035 BKN150
      TEMPO 1519/1523 4SM TSRA BKN025CB
     FM160200 VRB03KT P6SM SCT025
     FM161000 03006KT P6SM VCSH SCT035=

USA.gov is the U.S. government's official web portal to all federal, state and local government web resources and services.